Latest Weather Observations for Hindmarsh Island

IDS60801

Issued at 5:01 am CDT Friday 24 November 2017 (issued every 30 minutes, with the page automatically refreshed every 10 minutes)

About weather observations | Map of weather stations | Latest weather observations for SA | Other Formats
Station Details ID: 023894 Name: HINDMARSH ISLAND AWS Lat: -35.52 Lon: 138.82 Height: 11.0 m
Data from the previous 72 hours. | See also: Recent months at Hindmarsh Island
Date/Time
CDT
Temp
°C
App
Temp
°C
Dew
Point
°C
Rel
Hum
%
Delta-T
°C
Wind Press
QNH
hPa
Press
MSL
hPa
Rain since
9am
mm
Dir  Spd
km/h
Gust
km/h
Spd
kts
Gust
kts
24/05:00am 18.8 18.1 16.4 86 1.4 WSW 15 20 8 11 1011.2 1011.2 0.2
24/04:30am 18.8 18.5 16.4 86 1.4 SW 13 17 7 9 1010.9 1010.9 0.2
24/04:00am 18.5 17.2 15.9 85 1.5 WSW 17 20 9 11 1010.8 1010.8 0.2
24/03:30am 18.6 18.5 16.0 85 1.5 WSW 11 13 6 7 1011.0 1011.0 0.2
24/03:00am 18.8 19.1 16.0 84 1.7 WSW 9 13 5 7 1011.0 1011.0 0.2
24/02:30am 18.6 19.1 15.5 82 1.8 SW 7 9 4 5 1011.2 1011.2 0.2
24/02:00am 18.8 19.4 15.9 83 1.7 SW 7 9 4 5 1011.4 1011.4 0.2
24/01:30am 18.8 19.4 15.7 82 1.8 SW 7 11 4 6 1011.5 1011.5 0.2
24/01:00am 19.0 19.6 15.7 81 2.0 SW 7 9 4 5 1012.0 1012.0 0.2
24/12:30am 18.8 18.9 15.5 81 1.9 SW 9 11 5 6 1011.8 1011.8 0.2
24/12:00am 18.9 19.4 15.6 81 1.9 S 7 9 4 5 1011.9 1011.9 0.2
 
Date/Time
CDT
Temp
°C
App
Temp
°C
Dew
Point
°C
Rel
Hum
%
Delta-T
°C
Wind Press
QNH
hPa
Press
MSL
hPa
Rain since
9am
mm
Dir  Spd
km/h
Gust
km/h
Spd
kts
Gust
kts
23/11:30pm 19.0 20.6 15.9 82 1.8 SW 2 6 1 3 1012.0 1012.0 0.2
23/11:00pm 18.9 18.4 16.0 83 1.7 SSE 13 15 7 8 1011.8 1011.8 0.2
23/10:30pm 18.9 18.5 16.3 85 1.6 S 13 15 7 8 1011.6 1011.6 0.2
23/10:00pm 18.9 18.2 16.3 85 1.6 SSW 15 17 8 9 1011.4 1011.4 0.2
23/09:30pm 19.1 17.7 16.5 85 1.6 SSW 19 22 10 12 1010.9 1010.9 0.2
23/09:00pm 19.2 18.0 16.2 83 1.8 SW 17 20 9 11 1010.9 1010.9 0.2
23/08:30pm 19.3 17.8 16.3 83 1.8 SSW 19 20 10 11 1010.4 1010.4 0.2
23/08:00pm 19.6 19.3 16.4 82 1.9 SSW 13 15 7 8 1010.7 1010.7 0.2
23/07:30pm 19.8 18.3 16.4 81 2.0 SSW 19 20 10 11 1009.9 1009.9 0.2
23/07:00pm 20.2 18.7 16.8 81 2.1 SSW 20 24 11 13 1009.3 1009.3 0.2
23/06:30pm 20.6 18.7 16.8 79 2.3 SW 22 28 12 15 1009.2 1009.2 0.2
23/06:00pm 21.7 20.2 16.4 72 3.2 S 19 24 10 13 1009.1 1009.1 0.2
23/05:30pm 23.5 21.1 15.5 60 4.8 SE 22 26 12 14 1009.0 1009.0 0.2
23/05:00pm 24.4 21.1 16.1 60 5.1 SE 28 32 15 17 1009.0 1009.0 0.2
23/04:30pm 24.5 21.2 16.0 59 5.2 SE 28 32 15 17 1008.8 1008.8 0.2
23/04:00pm 23.4 21.2 16.0 63 4.5 SSE 22 28 12 15 1008.8 1008.8 0.2
23/03:30pm 24.8 24.1 17.3 63 4.7 SSE 17 20 9 11 1009.1 1009.1 0.2
23/03:00pm 23.6 22.8 16.1 62 4.6 S 15 17 8 9 1010.2 1010.2 0.2
23/02:30pm 22.5 22.6 16.5 69 3.7 S 11 13 6 7 1010.7 1010.7 0.2
23/02:00pm 21.9 21.3 16.6 72 3.2 SSW 15 19 8 10 1010.8 1010.8 0.2
23/01:30pm 21.7 20.3 16.6 73 3.1 SW 19 24 10 13 1010.5 1010.5 0.2
23/01:00pm 21.5 20.6 16.9 75 2.8 SSW 17 20 9 11 1010.9 1010.9 0.2
23/12:30pm 21.6 19.5 16.3 72 3.2 SW 22 26 12 14 1011.2 1011.2 0.2
23/12:00pm 23.2 20.9 17.7 71 3.4 SW 26 30 14 16 1011.0 1011.0 0.2
23/11:30am 23.2 22.4 17.9 72 3.3 SSW 19 20 10 11 1011.0 1011.0 0.2
23/11:00am 22.9 22.8 17.8 73 3.2 SW 15 19 8 10 1011.2 1011.2 0.0
23/10:30am 21.9 21.9 17.1 74 2.9 WSW 13 17 7 9 1010.9 1010.9 0.0
23/10:00am 22.2 23.8 17.8 76 2.7 SW 6 11 3 6 1010.4 1010.4 0.0
23/09:30am 20.9 22.3 17.3 80 2.2 SSW 6 7 3 4 1010.2 1010.2 0.0
23/09:00am 21.6 23.7 18.2 81 2.1 NW 4 9 2 5 1010.1 1010.1 1.2
23/08:30am 19.6 21.5 16.6 83 1.8 NNW 2 9 1 5 1009.9 1009.9 1.2
23/08:00am 18.9 20.3 16.3 85 1.6 WSW 4 9 2 5 1009.6 1009.6 1.2
23/07:30am 18.7 18.0 16.3 86 1.4 SSW 15 19 8 10 1009.1 1009.1 1.2
23/07:00am 18.7 18.3 16.3 86 1.4 SSW 13 15 7 8 1009.1 1009.1 1.2
23/06:30am 18.4 17.9 16.0 86 1.4 ESE 13 22 7 12 1009.5 1009.5 1.2
23/06:00am 18.6 17.4 16.2 86 1.4 S 17 20 9 11 1008.7 1008.7 1.0
23/05:30am 18.6 20.1 15.8 84 1.7 W 2 9 1 5 1009.1 1009.1 1.0
23/05:00am 18.5 19.1 15.7 84 1.7 WSW 7 15 4 8 1008.3 1008.3 0.8
23/04:30am 18.5 18.3 15.7 84 1.7 S 11 13 6 7 1008.7 1008.7 0.8
23/04:00am 18.6 18.1 15.8 84 1.7 SSW 13 19 7 10 1009.0 1009.0 0.8
23/03:30am 18.6 17.3 15.7 83 1.7 SW 17 19 9 10 1009.1 1009.1 0.8
23/03:00am 18.5 17.9 15.7 84 1.7 SSW 13 22 7 12 1009.2 1009.2 0.8
23/02:30am 18.4 16.0 15.5 83 1.7 SW 22 30 12 16 1009.1 1009.1 0.8
23/02:00am 19.1 16.4 15.6 80 2.1 WSW 24 37 13 20 1009.9 1009.9 0.2
23/01:30am 19.3 17.7 15.0 76 2.5 SW 17 24 9 13 1009.6 1009.6 0.0
23/01:00am 19.9 17.9 14.9 73 2.9 SW 19 22 10 12 1009.8 1009.8 0.0
23/12:30am 20.4 16.6 14.7 70 3.3 SSW 28 33 15 18 1009.1 1009.1 0.0
23/12:00am 20.7 18.6 14.6 68 3.6 SSW 19 24 10 13 1010.1 1010.1 0.0
 
Date/Time
CDT
Temp
°C
App
Temp
°C
Dew
Point
°C
Rel
Hum
%
Delta-T
°C
Wind Press
QNH
hPa
Press
MSL
hPa
Rain since
9am
mm
Dir  Spd
km/h
Gust
km/h
Spd
kts
Gust
kts
22/11:30pm 20.9 18.7 14.5 67 3.7 SSW 19 20 10 11 1010.2 1010.2 0.0
22/11:00pm 21.8 21.5 13.4 59 4.8 WSW 7 11 4 6 1011.1 1011.1 0.0
22/10:30pm 21.9 21.8 13.8 60 4.7 W 7 15 4 8 1010.9 1010.9 0.0
22/10:00pm 22.5 21.8 13.3 56 5.3 WNW 9 11 5 6 1010.8 1010.8 0.0
22/09:30pm 22.5 21.5 12.2 52 5.8 W 9 13 5 7 1010.5 1010.5 0.0
22/09:00pm 22.2 21.3 13.8 59 4.9 W 11 13 6 7 1010.3 1010.3 0.0
22/08:30pm 21.9 20.9 13.5 59 4.9 WSW 11 13 6 7 1009.8 1009.8 0.0
22/08:00pm 21.8 20.6 13.9 61 4.6 WSW 13 15 7 8 1009.6 1009.6 0.0
22/07:30pm 22.5 20.5 13.8 58 5.1 SW 17 19 9 10 1009.5 1009.5 0.0
22/07:00pm 23.6 22.0 13.8 54 5.7 SW 15 19 8 10 1009.1 1009.1 0.0
22/06:30pm 23.2 21.6 13.9 56 5.4 SW 15 17 8 9 1008.7 1008.7 0.0
22/06:00pm 23.8 21.3 13.6 52 6.0 SSW 19 24 10 13 1008.4 1008.4 0.0
22/05:30pm 24.1 21.5 13.9 53 6.0 WSW 20 26 11 14 1008.6 1008.6 0.0
22/05:00pm 24.6 21.0 14.1 52 6.2 SW 26 33 14 18 1008.4 1008.4 0.0
22/04:30pm 24.6 21.6 14.7 54 5.9 WSW 24 35 13 19 1008.5 1008.5 0.0
22/04:00pm 24.3 19.6 13.2 50 6.4 WSW 30 37 16 20 1008.6 1008.6 0.0
22/03:30pm 25.9 20.6 12.4 43 7.8 SW 32 41 17 22 1008.7 1008.7 0.0
22/03:00pm 25.8 22.1 14.0 48 7.0 WSW 26 39 14 21 1009.1 1009.1 0.0
22/02:30pm 25.4 20.6 11.6 42 7.9 SSW 28 35 15 19 1008.8 1008.8 0.0
22/02:00pm 27.2 21.9 11.3 37 9.1 S 30 35 16 19 1008.5 1008.5 0.0
22/01:30pm 27.1 22.2 13.8 44 7.9 S 32 35 17 19 1008.8 1008.8 0.0
22/01:00pm 27.9 21.7 10.1 33 10.0 SSW 33 39 18 21 1009.2 1009.2 0.0
22/12:48pm 29.6 24.5 10.7 31 10.8 SSW 28 41 15 22 1009.3 1009.3 0.0
22/12:30pm 34.8 31.6 5.3 16 15.9 NW 11 26 6 14 1009.3 1009.3 0.0
22/12:00pm 35.1 29.5 5.5 16 16.0 N 24 37 13 20 1009.7 1009.7 0.0
22/11:30am 34.0 27.7 3.7 15 15.8 N 26 39 14 21 1010.0 1010.0 0.0
22/11:08am 34.4 27.8 4.0 15 16.0 N 28 46 15 25 1010.3 1010.3 0.0
22/11:00am 34.1 27.0 3.8 15 15.8 NNE 30 46 16 25 1010.3 1010.3 0.0
22/10:30am 33.6 27.2 5.2 17 15.1 NNE 28 39 15 21 1010.3 1010.3 0.0
22/10:00am 33.3 27.8 5.8 18 14.8 NNE 24 35 13 19 1010.4 1010.4 0.0
22/09:30am 31.0 26.5 6.8 22 13.1 NNE 20 26 11 14 1010.8 1010.8 0.0
22/09:00am 29.4 24.1 6.7 24 12.1 NNE 24 32 13 17 1011.1 1011.1 0.0
22/08:30am 27.5 22.6 6.8 27 11.0 NE 22 30 12 16 1011.0 1011.0 0.0
22/08:00am 25.3 20.3 7.9 33 9.3 NE 24 32 13 17 1011.1 1011.1 0.0
22/07:30am 22.8 19.1 8.1 39 7.7 NE 17 24 9 13 1011.0 1011.0 0.0
22/07:00am 21.1 17.1 8.4 44 6.7 NNE 19 24 10 13 1010.9 1010.9 0.0
22/06:30am 20.1 16.4 8.1 46 6.2 NNE 17 22 9 12 1010.6 1010.6 0.0
22/06:00am 20.1 15.9 7.5 44 6.5 NE 19 24 10 13 1010.3 1010.3 0.0
22/05:30am 20.3 16.5 8.9 48 6.0 NNE 19 20 10 11 1010.1 1010.1 0.0
22/05:00am 19.3 16.0 9.5 53 5.2 NNE 17 20 9 11 1009.9 1009.9 0.0
22/04:30am 21.6 18.1 8.8 44 6.8 NNE 17 22 9 12 1009.6 1009.6 0.0
22/04:00am 19.9 16.4 7.3 44 6.4 NE 15 19 8 10 1009.6 1009.6 0.0
22/03:30am 20.8 18.4 10.0 50 5.8 NNE 13 15 7 8 1009.6 1009.6 0.0
22/03:00am 21.0 18.7 10.5 51 5.7 NNE 13 15 7 8 1009.7 1009.7 0.0
22/02:30am 20.6 17.7 9.8 50 5.8 NNE 15 17 8 9 1009.8 1009.8 0.0
22/02:00am 21.5 18.0 8.7 44 6.8 NNE 17 20 9 11 1010.1 1010.1 0.0
22/01:30am 21.5 18.8 9.1 45 6.6 NNE 13 15 7 8 1010.4 1010.4 0.0
22/01:00am 22.6 19.2 7.6 38 7.8 NNE 15 19 8 10 1010.7 1010.7 0.0
22/12:30am 23.8 20.0 7.4 35 8.6 NNE 17 22 9 12 1010.8 1010.8 0.0
22/12:00am 24.7 20.3 7.4 33 9.1 NNE 20 24 11 13 1011.0 1011.0 0.0
 
Date/Time
CDT
Temp
°C
App
Temp
°C
Dew
Point
°C
Rel
Hum
%
Delta-T
°C
Wind Press
QNH
hPa
Press
MSL
hPa
Rain since
9am
mm
Dir  Spd
km/h
Gust
km/h
Spd
kts
Gust
kts
21/11:30pm 24.8 20.0 5.6 29 9.8 NNE 20 22 11 12 1011.1 1011.1 0.0
21/11:00pm 25.1 21.4 6.3 30 9.7 N 15 17 8 9 1011.6 1011.6 0.0
21/10:30pm 25.3 22.4 6.5 30 9.8 N 11 13 6 7 1011.6 1011.6 0.0
21/10:00pm 26.3 23.5 6.9 29 10.2 N 11 15 6 8 1011.7 1011.7 0.0
21/09:30pm 26.7 25.0 10.0 35 9.3 NNW 9 15 5 8 1011.7 1011.7 0.0
21/09:00pm 27.7 23.3 6.5 26 11.2 NE 19 26 10 14 1011.4 1011.4 0.0
21/08:30pm 27.9 23.9 8.2 29 10.7 NE 19 24 10 13 1011.2 1011.2 0.0
21/08:00pm 28.8 24.5 6.8 25 11.7 ENE 19 22 10 12 1011.0 1011.0 0.0
21/07:30pm 31.5 27.8 6.5 21 13.5 ENE 15 19 8 10 1010.9 1010.9 0.0
21/07:00pm 33.3 28.2 3.2 15 15.5 ENE 19 26 10 14 1010.6 1010.6 0.0
21/06:30pm 33.9 28.9 3.7 15 15.7 NE 19 28 10 15 1010.6 1010.6 0.0
21/06:00pm 34.3 28.6 3.0 14 16.2 NE 22 30 12 16 1010.5 1010.5 0.0
21/05:30pm 34.4 28.9 2.0 13 16.5 NNE 20 30 11 16 1010.6 1010.6 0.0
21/05:00pm 35.7 29.8 4.1 14 16.7 NE 24 44 13 24 1010.7 1010.7 0.0
21/04:30pm 34.5 29.4 4.1 15 16.0 NNE 20 39 11 21 1010.9 1010.9 0.0
21/04:00pm 34.7 28.5 4.3 15 16.1 NNE 26 35 14 19 1011.1 1011.1 0.0
21/03:30pm 34.8 30.1 3.4 14 16.4 NE 17 28 9 15 1011.4 1011.4 0.0
21/03:00pm 34.4 28.9 4.0 15 16.0 NE 22 30 12 16 1011.8 1011.8 0.0
21/02:30pm 33.9 28.3 3.7 15 15.7 NNE 22 37 12 20 1012.1 1012.1 0.0
21/02:00pm 35.2 30.0 3.7 14 16.5 NE 20 30 11 16 1012.4 1012.4 0.0
21/01:30pm 33.3 28.8 4.1 16 15.3 NE 17 28 9 15 1012.9 1012.9 0.0
21/01:00pm 34.1 28.0 4.7 16 15.6 NNE 26 37 14 20 1013.3 1013.3 0.0
21/12:30pm 34.9 30.0 7.1 18 15.4 NNE 22 30 12 16 1013.6 1013.6 0.0
21/12:00pm 33.2 28.4 7.2 20 14.3 N 22 32 12 17 1014.0 1014.0 0.0
21/11:30am 33.8 28.5 7.0 19 14.7 N 24 35 13 19 1014.3 1014.3 0.0
21/11:00am 33.0 27.6 7.8 21 14.0 N 26 37 14 20 1014.5 1014.5 0.0
21/10:30am 32.3 26.7 7.2 21 13.7 N 26 37 14 20 1014.4 1014.4 0.0
21/10:00am 31.9 27.5 8.8 24 12.9 NNE 22 28 12 15 1014.6 1014.6 0.0
21/09:30am 30.5 26.2 9.4 27 11.8 NNE 22 28 12 15 1014.6 1014.6 0.0
21/09:00am 28.7 24.2 9.9 31 10.5 NE 24 30 13 16 1014.8 1014.8 0.0
21/08:30am 26.4 22.6 9.7 35 9.2 NNE 20 26 11 14 1014.8 1014.8 0.0
21/08:00am 25.3 21.7 10.4 39 8.3 NE 20 28 11 15 1014.7 1014.7 0.0
21/07:30am 24.0 20.9 10.3 42 7.5 NE 17 24 9 13 1014.8 1014.8 0.0
21/07:00am 22.4 19.1 11.5 50 6.1 NE 20 24 11 13 1014.7 1014.7 0.0
21/06:30am 21.3 18.1 11.9 55 5.3 NE 20 24 11 13 1014.5 1014.5 0.0
21/06:00am 20.6 17.4 11.8 57 4.9 NE 20 24 11 13 1014.3 1014.3 0.0
21/05:30am 20.6 17.6 12.1 58 4.8 NE 19 22 10 12 1014.1 1014.1 0.0

Other Formats:

Comma delimited format used in spreadsheet applications
http://www.bom.gov.au/fwo/IDS60801/IDS60801.94677.axf

JavaScript Object Notation format (JSON) in row-major order
http://www.bom.gov.au/fwo/IDS60801/IDS60801.94677.json